Adventure Cat — WBC3205 — position and weather

sailwx.info

Track history (hours):
 
Tides and Currents Weather Stations Pressure Air Temp Water Temp Dewpoint Dewpoint Depression Visibility Wind Speed Wind Dir Waves Ship Positions

Adventure Cat

Owner: ADVENTURE CAT INC, NAPA, CA. More information available from US FCC via Universal Licensing System and Coast Guard Vessel Documentation Center.

Last reported at 2018-Jun-19 03:27 UTC. Time now 2018-Jun-19 12:36 UTC.
Position N 37°49' W 122°25'.

Length 17 m; draft 2 m.

Type: Sailing vessel. MMSI: 367145450.

Date/timePositionNaut miles runAvg speedWind from/ knotsBaromVisibWave heightAir tempDewpointWater temp
2018-Jun-19 03:27N 37°49' W 122°25'2 5.4
2018-Jun-19 03:00N 37°49' W 122°28'1 1.7
2018-Jun-19 02:30N 37°50' W 122°27'3 0.7
2018-Jun-18 22:53N 37°49' W 122°24'3 6.5
2018-Jun-18 22:30N 37°49' W 122°28'1 1.4
2018-Jun-18 22:00N 37°50' W 122°28'1 2.3
2018-Jun-18 21:30N 37°50' W 122°26'2 0.1
2018-Jun-18 03:30N 37°49' W 122°25'2 4.9
2018-Jun-18 03:00N 37°49' W 122°28'1 2.4
2018-Jun-18 02:30N 37°50' W 122°28'3 0.5
2018-Jun-17 19:56N 37°49' W 122°24'3 6.1
2018-Jun-17 19:30N 37°49' W 122°28'1 1.6
2018-Jun-17 19:00N 37°50' W 122°27'1 2.3
2018-Jun-17 18:30N 37°50' W 122°26'2 0.1
2018-Jun-17 03:22N 37°49' W 122°24'1 1.8
2018-Jun-17 02:59N 37°49' W 122°25'3 5.9
2018-Jun-17 02:30N 37°49' W 122°28'3 0.1
2018-Jun-15 23:21N 37°49' W 122°25'1 3.3
2018-Jun-15 23:00N 37°48' W 122°23'0 0.9
2018-Jun-15 22:30N 37°48' W 122°23'2 4.6
2018-Jun-15 22:00N 37°50' W 122°24'3 5.7
2018-Jun-15 21:30N 37°52' W 122°26'2 4.4
2018-Jun-15 21:00N 37°50' W 122°27'2 0.1
2018-Jun-15 03:21N 37°49' W 122°25'1 4.4
2018-Jun-15 03:01N 37°50' W 122°26'1 2.8
2018-Jun-15 02:31N 37°49' W 122°27'2 0.4
2018-Jun-14 19:59N 37°49' W 122°25'4 7.6
2018-Jun-14 19:30N 37°49' W 122°29'2 3.1
2018-Jun-14 18:50N 37°51' W 122°28'2 6.3
2018-Jun-14 18:30N 37°50' W 122°26'1 0.1
2018-Jun-14 03:28N 37°49' W 122°25'1 2.6
2018-Jun-14 03:00N 37°50' W 122°25'2 3.8
2018-Jun-14 02:30N 37°49' W 122°28'2 0.1
2018-Jun-13 03:22N 37°49' W 122°25'2 5.2
2018-Jun-13 03:01N 37°49' W 122°27'1 1.4
2018-Jun-13 02:30N 37°49' W 122°28'2 4.2
2018-Jun-13 02:00N 37°50' W 122°25'1 0.2
2018-Jun-12 20:20N 37°49' W 122°24'1 2.7
2018-Jun-12 20:00N 37°49' W 122°25'3 6.6
2018-Jun-12 19:31N 37°49' W 122°29'2 4.8
2018-Jun-12 19:00N 37°50' W 122°26'2 0.1
2018-Jun-11 23:21N 37°49' W 122°25'2 6.5
2018-Jun-11 23:00N 37°49' W 122°27'1 1.8
2018-Jun-11 22:29N 37°50' W 122°28'3 2.3
2018-Jun-11 21:22N 37°49' W 122°25'2 5.0
2018-Jun-11 21:00N 37°50' W 122°27'1 2.6
2018-Jun-11 20:30N 37°49' W 122°28'3 2.8
2018-Jun-11 19:32N 37°49' W 122°25'0 7.4
2018-Jun-11 19:29N 37°49' W 122°25'3 6.0
2018-Jun-11 19:00N 37°49' W 122°29'2 4.0
2018-Jun-11 18:29N 37°50' W 122°26'2 1.4
2018-Jun-11 17:01N 37°49' W 122°25'0 9.1
2018-Jun-11 17:00N 37°49' W 122°25'3 5.2
2018-Jun-11 16:30N 37°50' W 122°28'2 4.9
2018-Jun-11 16:01N 37°50' W 122°25'1 0.0
2018-Jun-10 03:33N 37°49' W 122°25'0 5.9
2018-Jun-10 03:30N 37°49' W 122°25'3 6.2
2018-Jun-10 03:00N 37°49' W 122°29'2 4.3
2018-Jun-10 02:30N 37°50' W 122°26'  
Track history (hours):
 
Tides and Currents Weather Stations Pressure Air Temp Water Temp Dewpoint Dewpoint Depression Visibility Wind Speed Wind Dir Waves Ship Positions

Adventure Cat

Owner: ADVENTURE CAT INC, NAPA, CA. More information available from US FCC via Universal Licensing System and Coast Guard Vessel Documentation Center.

Last reported at 2018-Jun-19 03:27 UTC. Time now 2018-Jun-19 12:36 UTC.
Position N 37°49' W 122°25'.

Length 17 m; draft 2 m.

Type: Sailing vessel. MMSI: 367145450.

Date/timePositionNaut miles runAvg speedWind from/ knotsBaromVisibWave heightAir tempDewpointWater temp
2018-Jun-19 03:27N 37°49' W 122°25'2 5.4
2018-Jun-19 03:00N 37°49' W 122°28'1 1.7
2018-Jun-19 02:30N 37°50' W 122°27'3 0.7
2018-Jun-18 22:53N 37°49' W 122°24'3 6.5
2018-Jun-18 22:30N 37°49' W 122°28'1 1.4
2018-Jun-18 22:00N 37°50' W 122°28'1 2.3
2018-Jun-18 21:30N 37°50' W 122°26'2 0.1
2018-Jun-18 03:30N 37°49' W 122°25'2 4.9
2018-Jun-18 03:00N 37°49' W 122°28'1 2.4
2018-Jun-18 02:30N 37°50' W 122°28'3 0.5
2018-Jun-17 19:56N 37°49' W 122°24'3 6.1
2018-Jun-17 19:30N 37°49' W 122°28'1 1.6
2018-Jun-17 19:00N 37°50' W 122°27'1 2.3
2018-Jun-17 18:30N 37°50' W 122°26'2 0.1
2018-Jun-17 03:22N 37°49' W 122°24'1 1.8
2018-Jun-17 02:59N 37°49' W 122°25'3 5.9
2018-Jun-17 02:30N 37°49' W 122°28'3 0.1
2018-Jun-15 23:21N 37°49' W 122°25'1 3.3
2018-Jun-15 23:00N 37°48' W 122°23'0 0.9
2018-Jun-15 22:30N 37°48' W 122°23'2 4.6
2018-Jun-15 22:00N 37°50' W 122°24'3 5.7
2018-Jun-15 21:30N 37°52' W 122°26'2 4.4
2018-Jun-15 21:00N 37°50' W 122°27'2 0.1
2018-Jun-15 03:21N 37°49' W 122°25'1 4.4
2018-Jun-15 03:01N 37°50' W 122°26'1 2.8
2018-Jun-15 02:31N 37°49' W 122°27'2 0.4
2018-Jun-14 19:59N 37°49' W 122°25'4 7.6
2018-Jun-14 19:30N 37°49' W 122°29'2 3.1
2018-Jun-14 18:50N 37°51' W 122°28'2 6.3
2018-Jun-14 18:30N 37°50' W 122°26'1 0.1
2018-Jun-14 03:28N 37°49' W 122°25'1 2.6
2018-Jun-14 03:00N 37°50' W 122°25'2 3.8
2018-Jun-14 02:30N 37°49' W 122°28'2 0.1
2018-Jun-13 03:22N 37°49' W 122°25'2 5.2
2018-Jun-13 03:01N 37°49' W 122°27'1 1.4
2018-Jun-13 02:30N 37°49' W 122°28'2 4.2
2018-Jun-13 02:00N 37°50' W 122°25'1 0.2
2018-Jun-12 20:20N 37°49' W 122°24'1 2.7
2018-Jun-12 20:00N 37°49' W 122°25'3 6.6
2018-Jun-12 19:31N 37°49' W 122°29'2 4.8
2018-Jun-12 19:00N 37°50' W 122°26'2 0.1
2018-Jun-11 23:21N 37°49' W 122°25'2 6.5
2018-Jun-11 23:00N 37°49' W 122°27'1 1.8
2018-Jun-11 22:29N 37°50' W 122°28'3 2.3
2018-Jun-11 21:22N 37°49' W 122°25'2 5.0
2018-Jun-11 21:00N 37°50' W 122°27'1 2.6
2018-Jun-11 20:30N 37°49' W 122°28'3 2.8
2018-Jun-11 19:32N 37°49' W 122°25'0 7.4
2018-Jun-11 19:29N 37°49' W 122°25'3 6.0
2018-Jun-11 19:00N 37°49' W 122°29'2 4.0
2018-Jun-11 18:29N 37°50' W 122°26'2 1.4
2018-Jun-11 17:01N 37°49' W 122°25'0 9.1
2018-Jun-11 17:00N 37°49' W 122°25'3 5.2
2018-Jun-11 16:30N 37°50' W 122°28'2 4.9
2018-Jun-11 16:01N 37°50' W 122°25'1 0.0
2018-Jun-10 03:33N 37°49' W 122°25'0 5.9
2018-Jun-10 03:30N 37°49' W 122°25'3 6.2
2018-Jun-10 03:00N 37°49' W 122°29'2 4.3
2018-Jun-10 02:30N 37°50' W 122°26'  

Dump ship's entire track history